Time;durP1;ratioP1;P1;durP2;ratioP2;P2;SDS_P1;SDS_P2;PMS_P1;PMS_P2;Temp;Humidity;BMP_temperature;BMP_pressure;BME280_temperature;BME280_humidity;BME280_pressure;Samples;Min_cycle;Max_cycle;Signal;HPM_P1;HPM_P2
2022/11/07 00:00:43;;;;;;;3.88;2.92;;;;;;;;;;4991623;28;20451;-75
2022/11/07 00:03:11;;;;;;;5.35;4.05;;;;;;;;;;4993009;28;20045;-75
2022/11/07 00:05:57;;;;;;;4.13;3.40;;;;;;;;;;4999674;28;20038;-75
2022/11/07 00:08:30;;;;;;;4.30;3.33;;;;;;;;;;4989097;28;20045;-75
2022/11/07 00:10:59;;;;;;;8.15;4.95;;;;;;;;;;4990553;28;20029;-75
2022/11/07 00:13:30;;;;;;;3.10;2.80;;;;;;;;;;4986541;28;20045;-74
2022/11/07 00:15:59;;;;;;;5.10;3.40;;;;;;;;;;4998271;28;20034;-75
2022/11/07 00:18:28;;;;;;;3.10;2.80;;;;;;;;;;4996057;28;20045;-75
2022/11/07 00:21:01;;;;;;;3.78;2.97;;;;;;;;;;4995675;28;20038;-75
2022/11/07 00:23:30;;;;;;;6.07;3.75;;;;;;;;;;4989394;28;20026;-75
2022/11/07 00:26:06;;;;;;;3.92;3.40;;;;;;;;;;4995197;28;20069;-75
2022/11/07 00:28:32;;;;;;;3.47;3.17;;;;;;;;;;4988672;28;20049;-75
2022/11/07 00:30:58;;;;;;;3.67;2.40;;;;;;;;;;4994638;28;20031;-75
2022/11/07 00:33:24;;;;;;;3.55;2.42;;;;;;;;;;4995627;28;20026;-75
2022/11/07 00:35:50;;;;;;;9.60;4.43;;;;;;;;;;4991660;28;20033;-75
2022/11/07 00:38:18;;;;;;;5.50;3.38;;;;;;;;;;4991707;28;20555;-75
2022/11/07 00:40:52;;;;;;;4.50;3.30;;;;;;;;;;4992748;28;20025;-75
2022/11/07 00:43:18;;;;;;;3.35;3.00;;;;;;;;;;4989644;28;20038;-75
2022/11/07 00:45:46;;;;;;;4.82;3.65;;;;;;;;;;4991556;28;20495;-75
2022/11/07 00:48:12;;;;;;;3.78;3.47;;;;;;;;;;4989404;28;20392;-75
2022/11/07 00:50:40;;;;;;;4.88;3.28;;;;;;;;;;4993541;28;20029;-75
2022/11/07 00:53:06;;;;;;;3.90;3.20;;;;;;;;;;4987874;28;20034;-75
2022/11/07 00:55:32;;;;;;;5.88;3.63;;;;;;;;;;4990793;28;20041;-75
2022/11/07 00:57:58;;;;;;;3.13;2.78;;;;;;;;;;4991803;28;20030;-75
2022/11/07 01:00:24;;;;;;;4.80;3.38;;;;;;;;;;4984631;28;20045;-75
2022/11/07 01:05:09;;;;;;;8.20;3.75;;;;;;;;;;4985823;28;20045;-75
2022/11/07 01:05:38;;;;;;;3.13;2.33;;;;;;;;;;4989435;28;20037;-75
2022/11/07 01:08:06;;;;;;;9.80;4.03;;;;;;;;;;4990045;28;20030;-75
2022/11/07 01:10:32;;;;;;;3.70;3.40;;;;;;;;;;4988782;28;20034;-75
2022/11/07 01:13:01;;;;;;;3.40;3.10;;;;;;;;;;5004635;28;20077;-75
2022/11/07 01:15:31;;;;;;;4.20;3.40;;;;;;;;;;4993466;28;20045;-75
2022/11/07 01:17:57;;;;;;;5.40;3.67;;;;;;;;;;5005007;28;20498;-75
2022/11/07 01:20:25;;;;;;;4.47;3.10;;;;;;;;;;4988603;28;20058;-75
2022/11/07 01:22:54;;;;;;;3.40;3.05;;;;;;;;;;5005405;28;20065;-75
2022/11/07 01:25:22;;;;;;;3.75;2.65;;;;;;;;;;4988368;28;20026;-75
2022/11/07 01:27:50;;;;;;;7.03;3.97;;;;;;;;;;4990428;28;20649;-74
2022/11/07 01:30:18;;;;;;;5.22;2.58;;;;;;;;;;4989337;28;20026;-75
2022/11/07 01:32:43;;;;;;;2.95;2.65;;;;;;;;;;4988741;28;20065;-75
2022/11/07 01:35:15;;;;;;;4.30;3.67;;;;;;;;;;4989210;28;20049;-75
2022/11/07 01:37:40;;;;;;;3.47;2.58;;;;;;;;;;5008992;28;20022;-75
2022/11/07 01:40:06;;;;;;;3.95;2.60;;;;;;;;;;4988438;28;20109;-75
2022/11/07 01:42:32;;;;;;;3.83;2.97;;;;;;;;;;4989382;28;20388;-75
2022/11/07 01:45:05;;;;;;;3.03;2.72;;;;;;;;;;4990193;28;20034;-75
2022/11/07 01:47:35;;;;;;;3.08;2.83;;;;;;;;;;4984686;28;20038;-75
2022/11/07 01:50:02;;;;;;;3.45;2.95;;;;;;;;;;4990079;28;20030;-75
2022/11/07 01:52:35;;;;;;;3.40;2.75;;;;;;;;;;4992763;28;20025;-75
2022/11/07 01:55:19;;;;;;;2.72;2.50;;;;;;;;;;4986545;28;20076;-75
2022/11/07 01:57:57;;;;;;;2.83;2.55;;;;;;;;;;4997783;28;20045;-75
2022/11/07 02:00:25;;;;;;;7.60;3.25;;;;;;;;;;5006176;28;20480;-75
2022/11/07 02:03:02;;;;;;;5.45;2.80;;;;;;;;;;4987985;28;20035;-74
2022/11/07 02:05:33;;;;;;;2.55;2.35;;;;;;;;;;4991325;28;20026;-75
2022/11/07 02:08:01;;;;;;;2.60;2.40;;;;;;;;;;5002724;28;20034;-75
2022/11/07 02:10:27;;;;;;;3.83;3.25;;;;;;;;;;4992951;28;20034;-75
2022/11/07 02:12:56;;;;;;;3.70;3.08;;;;;;;;;;5001905;28;20040;-75
2022/11/07 02:15:22;;;;;;;3.35;2.75;;;;;;;;;;4977356;28;20041;-75
2022/11/07 02:17:48;;;;;;;2.40;2.00;;;;;;;;;;5004242;28;20543;-75
2022/11/07 02:23:19;;;;;;;4.35;2.85;;;;;;;;;;4969392;28;20053;-78
2022/11/07 02:25:45;;;;;;;4.53;3.00;;;;;;;;;;4956311;28;20069;-78
2022/11/07 02:28:12;;;;;;;3.78;3.42;;;;;;;;;;4956818;28;20027;-78
2022/11/07 02:30:40;;;;;;;3.00;2.47;;;;;;;;;;4952295;28;20059;-78
2022/11/07 02:33:22;;;;;;;4.10;2.70;;;;;;;;;;4953865;28;20034;-78
2022/11/07 02:35:49;;;;;;;3.75;2.55;;;;;;;;;;4961253;28;20042;-78
2022/11/07 02:38:22;;;;;;;2.97;2.78;;;;;;;;;;4960810;28;20026;-78
2022/11/07 02:40:54;;;;;;;4.72;3.25;;;;;;;;;;4959056;28;20396;-78
2022/11/07 02:43:23;;;;;;;4.30;2.78;;;;;;;;;;4950042;28;20030;-78
2022/11/07 02:45:54;;;;;;;2.72;2.03;;;;;;;;;;4950713;28;20038;-78
2022/11/07 02:48:26;;;;;;;3.38;3.00;;;;;;;;;;4953543;28;20388;-78
2022/11/07 02:50:52;;;;;;;4.22;3.17;;;;;;;;;;4951977;28;20474;-78
2022/11/07 02:53:18;;;;;;;3.70;2.72;;;;;;;;;;4957025;28;20022;-78
2022/11/07 02:55:46;;;;;;;4.03;2.90;;;;;;;;;;4950348;28;20050;-78
2022/11/07 02:58:12;;;;;;;3.83;2.47;;;;;;;;;;4955254;28;20465;-78
2022/11/07 03:00:38;;;;;;;5.00;2.90;;;;;;;;;;4964074;28;20036;-78
2022/11/07 03:03:06;;;;;;;2.78;2.53;;;;;;;;;;4955289;28;20034;-78
2022/11/07 03:05:32;;;;;;;3.38;2.38;;;;;;;;;;4952848;28;20043;-78
2022/11/07 03:07:58;;;;;;;3.40;2.50;;;;;;;;;;4954625;28;20074;-78
2022/11/07 03:10:26;;;;;;;4.28;2.97;;;;;;;;;;4955739;29;20031;-78
2022/11/07 03:12:54;;;;;;;5.25;2.53;;;;;;;;;;4949351;28;20035;-78
2022/11/07 03:15:22;;;;;;;3.83;2.53;;;;;;;;;;4949183;28;20394;-78
2022/11/07 03:17:50;;;;;;;3.33;2.42;;;;;;;;;;4951554;28;20038;-78
2022/11/07 03:20:18;;;;;;;2.20;2.00;;;;;;;;;;4954818;28;20127;-78
2022/11/07 03:22:48;;;;;;;3.25;2.83;;;;;;;;;;4951892;28;20184;-78
2022/11/07 03:25:19;;;;;;;2.78;2.58;;;;;;;;;;4954582;29;20035;-78
2022/11/07 03:27:53;;;;;;;;;;;;;;;;;;4952219;28;20034;-78
2022/11/07 03:30:18;;;;;;;3.78;3.20;;;;;;;;;;4953068;28;19911;-78
2022/11/07 03:32:44;;;;;;;4.38;2.78;;;;;;;;;;4966487;28;20531;-78
2022/11/07 03:35:10;;;;;;;7.05;3.55;;;;;;;;;;4968805;28;20035;-77
2022/11/07 03:37:36;;;;;;;3.47;2.78;;;;;;;;;;4951671;28;20035;-78
2022/11/07 03:40:02;;;;;;;2.75;2.55;;;;;;;;;;4954833;29;20027;-78
2022/11/07 03:42:28;;;;;;;3.05;2.40;;;;;;;;;;4951660;28;20031;-78
2022/11/07 03:44:54;;;;;;;2.50;1.77;;;;;;;;;;4966416;28;20382;-78
2022/11/07 03:47:20;;;;;;;5.03;3.38;;;;;;;;;;4958141;28;20027;-78
2022/11/07 03:49:46;;;;;;;4.13;2.10;;;;;;;;;;4953489;28;20032;-78
2022/11/07 03:52:11;;;;;;;10.52;3.13;;;;;;;;;;4951117;28;20095;-78
2022/11/07 03:54:42;;;;;;;4.43;2.53;;;;;;;;;;4948413;28;20550;-78
2022/11/07 03:57:08;;;;;;;3.47;2.63;;;;;;;;;;4949376;28;20036;-78
2022/11/07 03:59:33;;;;;;;2.58;2.28;;;;;;;;;;4951019;28;20055;-78
2022/11/07 04:02:04;;;;;;;3.63;1.85;;;;;;;;;;4951672;28;20030;-78
2022/11/07 04:04:32;;;;;;;2.13;1.80;;;;;;;;;;4962991;28;20406;-78
2022/11/07 04:06:58;;;;;;;2.53;1.92;;;;;;;;;;4966740;28;20039;-78
2022/11/07 04:09:23;;;;;;;5.47;2.35;;;;;;;;;;4951769;28;20390;-78
2022/11/07 04:17:21;;;;;;;3.22;2.05;;;;;;;;;;4949189;29;20043;-78
2022/11/07 04:19:48;;;;;;;4.32;2.63;;;;;;;;;;4952051;28;20031;-78
2022/11/07 04:22:14;;;;;;;2.85;2.50;;;;;;;;;;4948524;28;20039;-78
2022/11/07 04:24:40;;;;;;;3.67;2.78;;;;;;;;;;4971048;28;20054;-78
2022/11/07 04:30:17;;;;;;;3.80;2.85;;;;;;;;;;4953064;28;20488;-78
2022/11/07 04:32:49;;;;;;;3.53;2.85;;;;;;;;;;4950691;28;20031;-78
2022/11/07 04:35:15;;;;;;;5.35;2.97;;;;;;;;;;4949010;29;20038;-79
2022/11/07 04:37:41;;;;;;;4.03;2.60;;;;;;;;;;4950049;28;20032;-79
2022/11/07 04:40:08;;;;;;;6.70;2.95;;;;;;;;;;4952188;28;20389;-78
2022/11/07 04:42:36;;;;;;;2.92;2.72;;;;;;;;;;4949477;29;20389;-79
2022/11/07 04:45:04;;;;;;;6.47;3.60;;;;;;;;;;4948223;28;20119;-78
2022/11/07 04:47:30;;;;;;;3.42;2.30;;;;;;;;;;4953994;28;20119;-78
2022/11/07 04:49:56;;;;;;;3.53;2.10;;;;;;;;;;4952677;29;20023;-79
2022/11/07 04:52:25;;;;;;;2.17;1.98;;;;;;;;;;4951460;29;20426;-79
2022/11/07 04:54:51;;;;;;;8.48;3.17;;;;;;;;;;4949078;29;20049;-79
2022/11/07 04:57:17;;;;;;;3.72;3.22;;;;;;;;;;4947206;29;20035;-79
2022/11/07 04:59:45;;;;;;;5.03;2.53;;;;;;;;;;4951341;28;20038;-79
2022/11/07 05:02:13;;;;;;;4.10;2.65;;;;;;;;;;4951506;28;20038;-79
2022/11/07 05:04:39;;;;;;;6.30;3.30;;;;;;;;;;4947764;28;20394;-79
2022/11/07 05:07:07;;;;;;;2.28;2.08;;;;;;;;;;4951754;28;20027;-78
2022/11/07 05:09:33;;;;;;;2.97;2.55;;;;;;;;;;4951497;28;20030;-79
2022/11/07 05:11:59;;;;;;;3.67;2.50;;;;;;;;;;4946644;28;20478;-79
2022/11/07 05:14:25;;;;;;;6.00;3.10;;;;;;;;;;4946793;28;20035;-79
2022/11/07 05:16:53;;;;;;;3.85;3.13;;;;;;;;;;4952748;28;20035;-79
2022/11/07 05:19:23;;;;;;;5.55;2.70;;;;;;;;;;4950364;28;20039;-79
2022/11/07 05:24:40;;;;;;;6.15;3.75;;;;;;;;;;4934442;29;20046;-79
2022/11/07 05:27:13;;;;;;;4.45;3.38;;;;;;;;;;4949847;28;20393;-79
2022/11/07 05:29:39;;;;;;;5.20;2.38;;;;;;;;;;4946251;28;21014;-79
2022/11/07 05:32:05;;;;;;;6.75;2.80;;;;;;;;;;4918127;28;20027;-79
2022/11/07 05:34:33;;;;;;;6.55;2.92;;;;;;;;;;4954325;28;20023;-79
2022/11/07 05:37:02;;;;;;;3.42;3.13;;;;;;;;;;4951639;28;20031;-79
2022/11/07 05:39:27;;;;;;;5.80;2.75;;;;;;;;;;4951703;28;20046;-79
2022/11/07 05:41:53;;;;;;;3.90;2.63;;;;;;;;;;4943321;28;20675;-79
2022/11/07 05:44:19;;;;;;;4.30;2.85;;;;;;;;;;4948445;28;20042;-79
2022/11/07 05:46:50;;;;;;;5.18;2.28;;;;;;;;;;4946252;28;20031;-79
2022/11/07 05:49:18;;;;;;;4.55;2.85;;;;;;;;;;4943970;28;20027;-79
2022/11/07 05:51:46;;;;;;;3.78;2.17;;;;;;;;;;4945717;28;20027;-79
2022/11/07 05:54:14;;;;;;;2.20;1.98;;;;;;;;;;4963363;28;20121;-79
2022/11/07 05:56:42;;;;;;;5.93;2.65;;;;;;;;;;4951248;28;20035;-79
2022/11/07 05:59:11;;;;;;;5.55;2.65;;;;;;;;;;4932982;29;20042;-79
2022/11/07 06:01:37;;;;;;;3.03;2.55;;;;;;;;;;4969426;28;20039;-79
2022/11/07 06:04:03;;;;;;;5.25;3.95;;;;;;;;;;4967180;28;20045;-79
2022/11/07 06:06:30;;;;;;;3.40;2.38;;;;;;;;;;4949856;28;20363;-78
2022/11/07 06:08:56;;;;;;;3.33;2.40;;;;;;;;;;4948644;28;20394;-79
2022/11/07 06:11:27;;;;;;;2.83;2.63;;;;;;;;;;4976242;22;20524;-79
2022/11/07 06:13:56;;;;;;;3.72;2.78;;;;;;;;;;4969839;28;20393;-78
2022/11/07 06:16:24;;;;;;;3.25;2.65;;;;;;;;;;4968121;28;20507;-79
2022/11/07 06:18:50;;;;;;;4.90;2.30;;;;;;;;;;4966374;28;20062;-79
2022/11/07 06:21:15;;;;;;;3.70;2.65;;;;;;;;;;4965064;28;20042;-79
2022/11/07 06:23:41;;;;;;;4.65;2.63;;;;;;;;;;4950928;28;20054;-79
2022/11/07 06:26:07;;;;;;;2.80;2.38;;;;;;;;;;4985922;28;20030;-79
2022/11/07 06:28:35;;;;;;;4.55;2.90;;;;;;;;;;4988418;28;20048;-79
2022/11/07 06:31:06;;;;;;;4.07;2.60;;;;;;;;;;4973416;28;20053;-79
2022/11/07 06:33:32;;;;;;;5.05;3.00;;;;;;;;;;4988082;28;20034;-78
2022/11/07 06:36:11;;;;;;;4.90;3.00;;;;;;;;;;4968693;28;20749;-78
2022/11/07 06:38:39;;;;;;;7.95;3.40;;;;;;;;;;4973182;28;20056;-79
2022/11/07 06:41:06;;;;;;;7.28;2.38;;;;;;;;;;4988164;28;20034;-78
2022/11/07 06:43:33;;;;;;;5.30;2.63;;;;;;;;;;4993795;28;20034;-79
2022/11/07 06:46:04;;;;;;;5.95;3.63;;;;;;;;;;4981463;28;20401;-79
2022/11/07 06:48:30;;;;;;;3.95;3.17;;;;;;;;;;4998326;28;20481;-79
2022/11/07 06:50:57;;;;;;;6.68;3.15;;;;;;;;;;4990612;28;20113;-79
2022/11/07 06:53:25;;;;;;;3.15;2.05;;;;;;;;;;4991236;28;21009;-79
2022/11/07 06:55:58;;;;;;;13.13;4.28;;;;;;;;;;4993879;28;20038;-79
2022/11/07 06:58:24;;;;;;;3.85;2.55;;;;;;;;;;4995700;28;20059;-79
2022/11/07 07:00:50;;;;;;;5.18;3.17;;;;;;;;;;4991747;28;20042;-79
2022/11/07 07:03:18;;;;;;;4.57;3.28;;;;;;;;;;4983226;28;20041;-79
2022/11/07 07:05:46;;;;;;;11.57;4.07;;;;;;;;;;4993770;28;20030;-79
2022/11/07 07:08:13;;;;;;;6.13;4.10;;;;;;;;;;4992720;28;20038;-79
2022/11/07 07:10:41;;;;;;;4.93;3.13;;;;;;;;;;4941984;28;20039;-79
2022/11/07 07:13:07;;;;;;;10.73;3.33;;;;;;;;;;4969667;28;20038;-79
2022/11/07 07:15:35;;;;;;;3.22;2.92;;;;;;;;;;4974582;28;20061;-77
2022/11/07 07:18:01;;;;;;;4.65;3.38;;;;;;;;;;4973178;28;20053;-78
2022/11/07 07:20:30;;;;;;;7.25;3.40;;;;;;;;;;4993780;28;20409;-78
2022/11/07 07:22:58;;;;;;;7.03;2.53;;;;;;;;;;4991657;28;20038;-78
2022/11/07 07:25:24;;;;;;;4.65;3.20;;;;;;;;;;4990766;28;20030;-78
2022/11/07 07:27:50;;;;;;;21.13;3.13;;;;;;;;;;4990385;28;20041;-78
2022/11/07 07:30:15;;;;;;;5.75;2.72;;;;;;;;;;4976528;28;20124;-78
2022/11/07 07:32:41;;;;;;;3.83;2.63;;;;;;;;;;4975257;28;20073;-79
2022/11/07 07:35:07;;;;;;;6.93;3.70;;;;;;;;;;4974194;28;20030;-78
2022/11/07 07:37:38;;;;;;;4.80;3.38;;;;;;;;;;4975629;28;20321;-78
2022/11/07 07:40:06;;;;;;;3.92;3.53;;;;;;;;;;4970595;28;20031;-78
2022/11/07 07:42:32;;;;;;;7.00;3.85;;;;;;;;;;4993047;28;20030;-78
2022/11/07 07:45:00;;;;;;;5.35;3.20;;;;;;;;;;4974457;28;20030;-79
2022/11/07 07:47:28;;;;;;;3.22;2.92;;;;;;;;;;4992008;28;20030;-79
2022/11/07 07:50:00;;;;;;;3.03;2.47;;;;;;;;;;4978298;28;20041;-79
2022/11/07 07:52:25;;;;;;;3.83;3.45;;;;;;;;;;4988175;28;20037;-78
2022/11/07 07:54:54;;;;;;;8.98;3.20;;;;;;;;;;4986725;28;20037;-79
2022/11/07 07:57:20;;;;;;;10.23;3.05;;;;;;;;;;4972650;28;20042;-79
2022/11/07 07:59:51;;;;;;;4.18;2.75;;;;;;;;;;4972019;28;20085;-79
2022/11/07 08:02:17;;;;;;;2.95;2.55;;;;;;;;;;4969380;28;20034;-79
2022/11/07 08:04:43;;;;;;;6.82;3.45;;;;;;;;;;4972671;28;20081;-79
2022/11/07 08:07:09;;;;;;;5.07;2.72;;;;;;;;;;4993336;28;20023;-79
2022/11/07 08:09:37;;;;;;;2.72;2.20;;;;;;;;;;4996640;28;20029;-79
2022/11/07 08:12:07;;;;;;;3.60;2.85;;;;;;;;;;4990587;28;20496;-79
2022/11/07 08:14:35;;;;;;;3.45;3.15;;;;;;;;;;4984975;28;20420;-79
2022/11/07 08:17:01;;;;;;;12.48;4.30;;;;;;;;;;4998642;28;20034;-80
2022/11/07 08:19:27;;;;;;;5.13;3.10;;;;;;;;;;4958482;28;20061;-80
2022/11/07 08:21:53;;;;;;;3.85;2.78;;;;;;;;;;5000952;22;20049;-74
2022/11/07 08:24:19;;;;;;;4.47;2.83;;;;;;;;;;5015060;28;20040;-73
2022/11/07 08:26:45;;;;;;;4.97;3.60;;;;;;;;;;5006314;28;20045;-74
2022/11/07 08:29:13;;;;;;;6.68;2.75;;;;;;;;;;5009619;28;20037;-74
2022/11/07 08:31:38;;;;;;;4.32;3.47;;;;;;;;;;5009669;28;20101;-74
2022/11/07 08:34:07;;;;;;;5.22;3.42;;;;;;;;;;4995352;28;20045;-74
2022/11/07 08:36:35;;;;;;;4.05;3.63;;;;;;;;;;5008687;28;20034;-74
2022/11/07 08:39:03;;;;;;;4.70;2.42;;;;;;;;;;5010084;28;20033;-73
2022/11/07 08:41:31;;;;;;;4.07;2.53;;;;;;;;;;5009885;28;20121;-74
2022/11/07 08:43:57;;;;;;;6.90;3.30;;;;;;;;;;5008675;28;20037;-73
2022/11/07 08:46:29;;;;;;;5.35;2.47;;;;;;;;;;5025369;28;20037;-73
2022/11/07 08:48:54;;;;;;;7.07;2.92;;;;;;;;;;4992610;28;20439;-74
2022/11/07 08:51:20;;;;;;;3.72;2.75;;;;;;;;;;5008759;28;20434;-74
2022/11/07 08:53:49;;;;;;;3.33;1.92;;;;;;;;;;5010008;28;20557;-75
2022/11/07 08:56:14;;;;;;;5.63;3.47;;;;;;;;;;5012259;28;20034;-74
2022/11/07 08:58:40;;;;;;;8.13;3.35;;;;;;;;;;5006749;28;20029;-74
2022/11/07 09:01:07;;;;;;;5.57;2.80;;;;;;;;;;5003110;28;20065;-74
2022/11/07 09:03:34;;;;;;;5.43;2.78;;;;;;;;;;5009156;28;20037;-74
2022/11/07 09:06:03;;;;;;;5.05;2.83;;;;;;;;;;5020098;28;20037;-74
2022/11/07 09:08:32;;;;;;;3.28;2.85;;;;;;;;;;5007851;28;20026;-74
2022/11/07 09:11:07;;;;;;;3.30;3.00;;;;;;;;;;5008132;28;20022;-74
2022/11/07 09:13:33;;;;;;;3.53;2.95;;;;;;;;;;5011893;28;20026;-74
2022/11/07 09:15:59;;;;;;;6.63;2.45;;;;;;;;;;5010043;28;20030;-74
2022/11/07 09:18:26;;;;;;;4.80;3.15;;;;;;;;;;5011412;28;20472;-73
2022/11/07 09:20:52;;;;;;;4.30;3.03;;;;;;;;;;5008405;28;20034;-73
2022/11/07 09:23:18;;;;;;;3.67;2.38;;;;;;;;;;4993172;28;20049;-73
2022/11/07 09:25:44;;;;;;;7.20;5.18;;;;;;;;;;5007678;28;20476;-73
2022/11/07 09:28:13;;;;;;;17.85;4.05;;;;;;;;;;5006911;28;20026;-73
2022/11/07 09:30:42;;;;;;;7.35;3.85;;;;;;;;;;4993603;28;20472;-73
2022/11/07 09:33:10;;;;;;;4.28;3.47;;;;;;;;;;5002949;28;20033;-74
2022/11/07 09:35:36;;;;;;;5.95;3.10;;;;;;;;;;5003911;28;20034;-74
2022/11/07 09:38:02;;;;;;;3.50;2.85;;;;;;;;;;5007455;28;20042;-74
2022/11/07 09:40:40;;;;;;;4.10;3.10;;;;;;;;;;5009540;28;20041;-73
2022/11/07 09:43:13;;;;;;;6.50;2.67;;;;;;;;;;5003266;28;20245;-74
2022/11/07 09:45:53;;;;;;;5.40;3.05;;;;;;;;;;5007956;28;20033;-74
2022/11/07 09:48:22;;;;;;;6.30;3.05;;;;;;;;;;5006508;28;20030;-74
2022/11/07 09:50:49;;;;;;;6.70;2.60;;;;;;;;;;5025294;28;20041;-73
2022/11/07 09:53:23;;;;;;;8.38;3.28;;;;;;;;;;5007784;28;20044;-75
2022/11/07 09:55:53;;;;;;;3.92;2.85;;;;;;;;;;5020402;28;20034;-74
2022/11/07 09:58:26;;;;;;;7.05;4.55;;;;;;;;;;5012036;28;20052;-74
2022/11/07 10:00:58;;;;;;;10.23;3.90;;;;;;;;;;5013327;28;20029;-74
2022/11/07 10:03:24;;;;;;;6.43;3.72;;;;;;;;;;4993507;28;20037;-74
2022/11/07 10:05:50;;;;;;;7.20;4.38;;;;;;;;;;5008166;28;20034;-75
2022/11/07 10:08:24;;;;;;;9.02;3.90;;;;;;;;;;5001922;28;20033;-74
2022/11/07 10:10:50;;;;;;;4.30;2.88;;;;;;;;;;5004422;28;20034;-73
2022/11/07 10:13:34;;;;;;;5.97;2.72;;;;;;;;;;5006352;28;20068;-74
2022/11/07 10:16:03;;;;;;;4.53;2.95;;;;;;;;;;5026608;28;20495;-73
2022/11/07 10:18:47;;;;;;;6.75;2.45;;;;;;;;;;5007708;28;20137;-74
2022/11/07 10:21:26;;;;;;;3.45;2.25;;;;;;;;;;5009915;28;20045;-74
2022/11/07 10:24:21;;;;;;;7.25;3.35;;;;;;;;;;5005211;28;20046;-74
2022/11/07 10:26:49;;;;;;;4.63;2.33;;;;;;;;;;4979396;28;20073;-74
2022/11/07 10:29:19;;;;;;;4.13;2.63;;;;;;;;;;5013276;28;20037;-74
2022/11/07 10:31:50;;;;;;;8.23;2.83;;;;;;;;;;5010494;28;20395;-74
2022/11/07 10:34:33;;;;;;;4.15;3.08;;;;;;;;;;5011264;28;20507;-74
2022/11/07 10:36:58;;;;;;;5.30;2.45;;;;;;;;;;5014934;28;20026;-74
2022/11/07 10:39:24;;;;;;;7.70;2.53;;;;;;;;;;5038112;28;20025;-74
2022/11/07 10:42:03;;;;;;;6.72;2.70;;;;;;;;;;5010327;28;20058;-75
2022/11/07 10:44:32;;;;;;;6.53;3.15;;;;;;;;;;5010671;28;20022;-74
2022/11/07 10:46:59;;;;;;;3.92;2.15;;;;;;;;;;5029817;28;20021;-74
2022/11/07 10:49:26;;;;;;;5.65;2.65;;;;;;;;;;4996459;28;20384;-74
2022/11/07 10:51:53;;;;;;;8.90;3.72;;;;;;;;;;5012704;28;20097;-75
2022/11/07 10:54:26;;;;;;;5.95;2.58;;;;;;;;;;5013056;28;20030;-74
2022/11/07 10:57:06;;;;;;;3.80;2.65;;;;;;;;;;4998205;28;20502;-74
2022/11/07 10:59:33;;;;;;;2.60;2.17;;;;;;;;;;5009676;28;20029;-74
2022/11/07 11:02:01;;;;;;;8.25;2.60;;;;;;;;;;5025125;28;20021;-74
2022/11/07 11:04:29;;;;;;;10.20;3.08;;;;;;;;;;5012710;28;20022;-74
2022/11/07 11:06:59;;;;;;;3.42;2.67;;;;;;;;;;5016498;28;20387;-74
2022/11/07 11:09:29;;;;;;;7.20;2.63;;;;;;;;;;5027121;28;20045;-74
2022/11/07 11:12:04;;;;;;;4.50;1.98;;;;;;;;;;5009903;28;20022;-74
2022/11/07 11:14:33;;;;;;;5.15;2.15;;;;;;;;;;5009607;28;20026;-74
2022/11/07 11:17:01;;;;;;;3.13;2.08;;;;;;;;;;5009502;28;20037;-73
2022/11/07 11:19:27;;;;;;;2.50;1.70;;;;;;;;;;5010076;28;20058;-74
2022/11/07 11:21:54;;;;;;;5.95;2.75;;;;;;;;;;5010384;28;20045;-73
2022/11/07 11:24:29;;;;;;;2.72;1.80;;;;;;;;;;5009243;28;20044;-73
2022/11/07 11:26:57;;;;;;;7.60;2.75;;;;;;;;;;5010193;28;20388;-74
2022/11/07 11:29:36;;;;;;;4.20;2.20;;;;;;;;;;5013196;28;20025;-74
2022/11/07 11:32:02;;;;;;;6.15;2.75;;;;;;;;;;5009455;28;20034;-74
2022/11/07 11:34:47;;;;;;;7.78;2.50;;;;;;;;;;5011678;28;20045;-74
2022/11/07 11:37:26;;;;;;;5.30;2.60;;;;;;;;;;4988723;28;20030;-74
2022/11/07 11:39:57;;;;;;;5.10;2.28;;;;;;;;;;5024153;28;20049;-74
2022/11/07 11:42:38;;;;;;;3.60;2.53;;;;;;;;;;5010322;28;21582;-74
2022/11/07 11:45:24;;;;;;;3.58;2.47;;;;;;;;;;5036589;28;20037;-73
2022/11/07 11:47:58;;;;;;;3.47;2.28;;;;;;;;;;5019898;28;20518;-73
2022/11/07 11:50:33;;;;;;;5.18;2.08;;;;;;;;;;5012234;28;20042;-73
2022/11/07 11:52:59;;;;;;;3.03;2.22;;;;;;;;;;5009809;28;20044;-73
2022/11/07 11:55:30;;;;;;;5.72;2.58;;;;;;;;;;4991847;28;20033;-73
2022/11/07 11:58:18;;;;;;;8.73;3.72;;;;;;;;;;4991894;28;20038;-73
2022/11/07 12:00:50;;;;;;;5.65;1.85;;;;;;;;;;5010334;28;20048;-73
2022/11/07 12:03:19;;;;;;;12.27;3.53;;;;;;;;;;5008464;28;20038;-73
2022/11/07 12:05:53;;;;;;;3.90;2.50;;;;;;;;;;5010276;28;20061;-74
2022/11/07 12:08:22;;;;;;;7.93;2.88;;;;;;;;;;4994044;28;20026;-73
2022/11/07 12:10:54;;;;;;;3.47;2.10;;;;;;;;;;5009669;28;20034;-73
2022/11/07 12:13:19;;;;;;;4.85;2.53;;;;;;;;;;5010972;28;20038;-74
2022/11/07 12:15:45;;;;;;;4.15;2.33;;;;;;;;;;5008970;28;20052;-74
2022/11/07 12:18:20;;;;;;;7.55;2.33;;;;;;;;;;5011414;28;20472;-74
2022/11/07 12:21:07;;;;;;;7.82;1.65;;;;;;;;;;5008772;28;20033;-74
2022/11/07 12:23:54;;;;;;;6.07;1.92;;;;;;;;;;5014717;28;20030;-74
2022/11/07 12:26:34;;;;;;;3.97;1.60;;;;;;;;;;5010314;28;20033;-74
2022/11/07 12:29:11;;;;;;;8.32;1.60;;;;;;;;;;5007507;28;20582;-74
2022/11/07 12:31:50;;;;;;;9.82;3.00;;;;;;;;;;5007728;28;20498;-74
2022/11/07 12:34:22;;;;;;;4.80;1.92;;;;;;;;;;5009128;28;20033;-74
2022/11/07 12:36:57;;;;;;;9.07;2.17;;;;;;;;;;5004884;28;20034;-74
2022/11/07 12:39:31;;;;;;;3.45;2.80;;;;;;;;;;5005620;28;20038;-74
2022/11/07 12:42:00;;;;;;;3.90;1.67;;;;;;;;;;5008439;28;20030;-74
2022/11/07 12:44:39;;;;;;;7.75;2.28;;;;;;;;;;5010293;28;20065;-74
2022/11/07 12:47:17;;;;;;;5.00;2.90;;;;;;;;;;5003983;28;20404;-74
2022/11/07 12:49:43;;;;;;;5.82;2.20;;;;;;;;;;5009580;28;20033;-74
2022/11/07 12:52:30;;;;;;;5.32;2.75;;;;;;;;;;5008327;28;20025;-74
2022/11/07 12:55:01;;;;;;;5.35;1.80;;;;;;;;;;5008336;28;20022;-74
2022/11/07 12:57:29;;;;;;;4.38;2.63;;;;;;;;;;5022132;28;20026;-72
2022/11/07 13:00:03;;;;;;;9.73;2.97;;;;;;;;;;5010972;28;20029;-74
2022/11/07 13:02:46;;;;;;;4.47;2.00;;;;;;;;;;5007174;28;20098;-74
2022/11/07 13:05:18;;;;;;;5.70;2.08;;;;;;;;;;5005880;28;20037;-73
2022/11/07 13:07:58;;;;;;;6.10;2.40;;;;;;;;;;5009060;28;20026;-74
2022/11/07 13:10:42;;;;;;;3.73;2.23;;;;;;;;;;5010257;28;20026;-74
2022/11/07 13:13:17;;;;;;;5.10;2.60;;;;;;;;;;5016939;28;20116;-74
2022/11/07 13:15:43;;;;;;;5.32;1.88;;;;;;;;;;5002549;28;20029;-75
2022/11/07 13:18:38;;;;;;;5.05;2.22;;;;;;;;;;5010117;28;20432;-73
2022/11/07 13:21:05;;;;;;;6.05;2.58;;;;;;;;;;4993367;28;20507;-73
2022/11/07 13:23:31;;;;;;;4.13;2.28;;;;;;;;;;5007199;28;20033;-73
2022/11/07 13:26:01;;;;;;;7.35;1.90;;;;;;;;;;5006568;28;20045;-73
2022/11/07 13:28:49;;;;;;;3.08;2.13;;;;;;;;;;4992216;28;20040;-75
2022/11/07 13:31:29;;;;;;;7.72;3.17;;;;;;;;;;5008798;28;20051;-75
2022/11/07 13:34:07;;;;;;;2.97;2.40;;;;;;;;;;5009487;28;20392;-75
2022/11/07 13:36:34;;;;;;;4.93;2.10;;;;;;;;;;5006524;28;20030;-74
2022/11/07 13:39:04;;;;;;;6.28;3.45;;;;;;;;;;5002880;28;20029;-74
2022/11/07 13:41:31;;;;;;;5.72;2.40;;;;;;;;;;5005147;28;20033;-74
2022/11/07 13:44:05;;;;;;;2.75;2.15;;;;;;;;;;4991312;28;20582;-74
2022/11/07 13:46:36;;;;;;;3.35;2.25;;;;;;;;;;5006772;28;20049;-73
2022/11/07 13:49:12;;;;;;;6.10;2.50;;;;;;;;;;5008830;28;20210;-73
2022/11/07 13:51:44;;;;;;;4.85;2.83;;;;;;;;;;5005741;28;20029;-73
2022/11/07 13:54:13;;;;;;;4.97;2.03;;;;;;;;;;5004312;28;20026;-73
2022/11/07 13:56:41;;;;;;;6.03;3.15;;;;;;;;;;5004174;28;20034;-73
2022/11/07 13:59:13;;;;;;;4.53;2.08;;;;;;;;;;4989201;28;20097;-73
2022/11/07 14:01:42;;;;;;;5.88;2.72;;;;;;;;;;4995194;28;20033;-73
2022/11/07 14:04:13;;;;;;;5.57;2.42;;;;;;;;;;5013432;28;20387;-73
2022/11/07 14:06:41;;;;;;;4.75;2.53;;;;;;;;;;5010431;28;20476;-73
2022/11/07 14:09:08;;;;;;;2.63;1.77;;;;;;;;;;5011013;28;20030;-73
2022/11/07 14:11:34;;;;;;;5.20;2.10;;;;;;;;;;5029667;28;20053;-73
2022/11/07 14:14:00;;;;;;;4.78;2.08;;;;;;;;;;5014183;28;20022;-73
2022/11/07 14:16:31;;;;;;;8.60;2.58;;;;;;;;;;5021675;28;20026;-72
2022/11/07 14:19:08;;;;;;;5.47;2.67;;;;;;;;;;5006300;28;20138;-73
2022/11/07 14:21:36;;;;;;;12.23;3.33;;;;;;;;;;5024796;22;20027;-80
2022/11/07 14:24:02;;;;;;;4.63;1.90;;;;;;;;;;5010315;28;20034;-79
2022/11/07 14:26:31;;;;;;;3.92;2.50;;;;;;;;;;5013660;28;20052;-80
2022/11/07 14:29:00;;;;;;;3.15;2.42;;;;;;;;;;5012798;28;20026;-79
2022/11/07 14:31:32;;;;;;;3.55;2.53;;;;;;;;;;5015135;28;20034;-79
2022/11/07 14:34:05;;;;;;;5.15;2.88;;;;;;;;;;5007264;28;20026;-80
2022/11/07 14:36:33;;;;;;;2.97;1.98;;;;;;;;;;4995760;28;20045;-79
2022/11/07 14:39:00;;;;;;;4.45;2.25;;;;;;;;;;5034230;28;20021;-79
2022/11/07 14:41:26;;;;;;;4.57;2.80;;;;;;;;;;5018012;28;20032;-79
2022/11/07 14:43:52;;;;;;;7.72;3.10;;;;;;;;;;5022918;28;20390;-77
2022/11/07 14:46:24;;;;;;;4.43;3.58;;;;;;;;;;5010185;28;20040;-79
2022/11/07 14:48:51;;;;;;;10.80;3.75;;;;;;;;;;5010690;28;20053;-79
2022/11/07 14:51:21;;;;;;;4.93;3.05;;;;;;;;;;5004309;28;20388;-79
2022/11/07 14:53:50;;;;;;;7.10;2.70;;;;;;;;;;5003351;28;20034;-78
2022/11/07 14:56:21;;;;;;;5.70;2.67;;;;;;;;;;5009485;28;20038;-78
2022/11/07 14:58:47;;;;;;;5.80;2.58;;;;;;;;;;5009649;28;20515;-79
2022/11/07 15:01:22;;;;;;;3.42;2.80;;;;;;;;;;5012697;28;20033;-78
2022/11/07 15:03:56;;;;;;;5.60;3.60;;;;;;;;;;5011529;28;20041;-79
2022/11/07 15:06:32;;;;;;;7.53;6.93;;;;;;;;;;4988149;28;20037;-79
2022/11/07 15:08:59;;;;;;;5.00;2.78;;;;;;;;;;4996044;28;20049;-79
2022/11/07 15:11:32;;;;;;;5.47;2.65;;;;;;;;;;5010677;28;20026;-79